Etusivu
METAR-TAF:

METAR-TAF

Lentoasemat :

Cut Bank, Montana, Yhdysvallat

Leveyspiiri: 48-36-30N, Pituuspiiri: 112-22-34W, korkeus merenpinnasta: 1175 m

Tämänhetkinen sää

Tämä raportti tehtiin 1 tunti ja 0 minuuttia sitten, kello 18.56 UTC
Tuuli 31 kn lännestä/lounaasta puuskistuen 41 kn:hen
Lämpötila 7°C
Kosteus 21%
Ilmanpaine 1014 hPa
Näkyvyys: 16.1 km
selkeää

METAR: KCTB 211856Z AUTO 25031G41KT 10SM CLR 07/M14 A2994 RMK AO2 PK WND 25041/1848 SLP156 T00721139

Aika: 12:56 (19:56 UTC)

Sääennuste

Tämä raportti tehtiin 2 tuntia ja 11 minuuttia sitten, kello 17.45 UTC
Ennuste voimassa 21. päivästä klo 18 UTC - 22. päivään klo 18 UTC
Tuuli 28 kn lännestä/lounaasta puuskistuen 38 kn:hen
Näkyvyys: 10 km
Muutamia pilviä 15000 ft:n korkeudessa
From 22. päivästä klo 0500 UTC
Tuuli 18 kn lännestä puuskistuen 27 kn:hen
Näkyvyys: 10 km
Muutamia pilviä 15000 ft:n korkeudessa

TAF: KCTB 211745Z 2118/2218 25028G38KT P6SM FEW150 FM220500 26018G27KT P6SM FEW150

Säähavainnot ja -ennusteet yli 4000 lentoasemalta (METAR- ja TAF-raportit).

Käytössä olevat sääasemat on merkitty karttaan keltaisilla ja punaisilla pisteillä.

Aseta hiiri pisteen päälle nähdäksesi sääaseman nimen.

Klikkaa sitten nähdäksesi säähavainnot ja -ennusteet.

Kartan vaihtaminen: klikkaa mustalla rastilla varustettuja vihreitä pisteitä, niin voit zoomata sisään; viivalla varustettua vihreää pistettä, niin voit zoomata ulos tai vihreitä nuolia, niin pääset viereisille kartoille.


METAR-TAF: